Time;durP1;ratioP1;P1;durP2;ratioP2;P2;SDS_P1;SDS_P2;PMS_P1;PMS_P2;Temp;Humidity;BMP_temperature;BMP_pressure;BME280_temperature;BME280_humidity;BME280_pressure;Samples;Min_cycle;Max_cycle;Signal;HPM_P1;HPM_P2
2022/03/14 00:01:39;;;;;;;13.02;6.97;;;;;;;;;;4998372;28;20056;-77
2022/03/14 00:04:06;;;;;;;13.82;6.97;;;;;;;;;;4998350;28;20045;-77
2022/03/14 00:06:35;;;;;;;12.27;6.47;;;;;;;;;;4997100;28;20062;-77
2022/03/14 00:09:06;;;;;;;11.95;6.10;;;;;;;;;;4998363;28;20042;-77
2022/03/14 00:11:35;;;;;;;12.35;6.88;;;;;;;;;;4997337;28;20501;-77
2022/03/14 00:14:08;;;;;;;11.60;6.75;;;;;;;;;;4998041;28;20053;-77
2022/03/14 00:16:37;;;;;;;15.32;6.47;;;;;;;;;;4998340;28;20050;-77
2022/03/14 00:19:06;;;;;;;14.93;8.20;;;;;;;;;;4997651;28;20042;-77
2022/03/14 00:21:39;;;;;;;13.98;7.20;;;;;;;;;;4998170;28;20042;-77
2022/03/14 00:24:06;;;;;;;13.43;6.85;;;;;;;;;;4998068;28;20073;-77
2022/03/14 00:26:33;;;;;;;12.88;7.10;;;;;;;;;;4996949;28;20046;-77
2022/03/14 00:29:00;;;;;;;10.90;6.20;;;;;;;;;;4997096;28;20050;-77
2022/03/14 00:31:26;;;;;;;11.82;7.30;;;;;;;;;;4996800;28;20475;-77
2022/03/14 00:33:53;;;;;;;12.13;7.03;;;;;;;;;;4996819;28;20046;-77
2022/03/14 00:36:20;;;;;;;12.23;6.43;;;;;;;;;;4997863;28;20379;-77
2022/03/14 00:38:48;;;;;;;10.90;5.80;;;;;;;;;;4996765;28;20489;-77
2022/03/14 00:41:16;;;;;;;13.38;7.28;;;;;;;;;;4997479;28;20449;-77
2022/03/14 00:43:42;;;;;;;12.85;6.93;;;;;;;;;;4997776;28;20367;-77
2022/03/14 00:46:09;;;;;;;14.75;6.72;;;;;;;;;;4995868;28;20491;-77
2022/03/14 00:48:36;;;;;;;13.85;6.72;;;;;;;;;;4996433;28;20554;-77
2022/03/14 00:51:03;;;;;;;13.13;6.65;;;;;;;;;;4997418;28;20100;-77
2022/03/14 00:53:31;;;;;;;12.50;7.45;;;;;;;;;;4997285;28;20071;-77
2022/03/14 00:55:59;;;;;;;13.40;7.00;;;;;;;;;;4997389;28;20046;-77
2022/03/14 00:58:26;;;;;;;10.88;5.90;;;;;;;;;;4997521;28;20046;-77
2022/03/14 01:00:53;;;;;;;13.20;6.57;;;;;;;;;;4996450;28;20467;-77
2022/03/14 01:03:19;;;;;;;14.68;8.05;;;;;;;;;;4996568;28;20042;-77
2022/03/14 01:05:46;;;;;;;12.75;6.38;;;;;;;;;;4997515;28;20108;-77
2022/03/14 01:08:12;;;;;;;14.05;6.22;;;;;;;;;;4996409;28;20514;-77
2022/03/14 01:10:39;;;;;;;12.85;6.30;;;;;;;;;;4997375;28;20049;-77
2022/03/14 01:13:10;;;;;;;12.55;6.40;;;;;;;;;;4997285;28;20101;-77
2022/03/14 01:15:36;;;;;;;15.73;7.35;;;;;;;;;;4997456;28;20047;-77
2022/03/14 01:18:04;;;;;;;12.23;6.50;;;;;;;;;;4996667;28;20089;-77
2022/03/14 01:20:31;;;;;;;12.20;6.10;;;;;;;;;;4997281;28;20049;-77
2022/03/14 01:22:57;;;;;;;12.45;6.20;;;;;;;;;;4997418;28;20092;-77
2022/03/14 01:25:24;;;;;;;11.27;6.20;;;;;;;;;;4997150;28;20089;-77
2022/03/14 01:27:51;;;;;;;12.32;6.90;;;;;;;;;;4996555;28;20050;-77
2022/03/14 01:30:19;;;;;;;10.90;7.07;;;;;;;;;;4996693;28;20178;-77
2022/03/14 01:32:46;;;;;;;12.50;6.25;;;;;;;;;;4996059;28;20051;-77
2022/03/14 01:35:12;;;;;;;12.77;5.93;;;;;;;;;;4997009;28;20097;-77
2022/03/14 01:37:39;;;;;;;12.65;7.10;;;;;;;;;;4996922;28;20077;-77
2022/03/14 01:40:09;;;;;;;13.25;7.10;;;;;;;;;;4996939;28;20042;-77
2022/03/14 01:42:35;;;;;;;11.57;6.47;;;;;;;;;;4996854;28;20053;-77
2022/03/14 01:45:04;;;;;;;12.60;6.18;;;;;;;;;;4995578;28;20551;-77
2022/03/14 01:47:34;;;;;;;11.73;5.97;;;;;;;;;;4995940;28;20121;-77
2022/03/14 01:50:00;;;;;;;12.25;6.43;;;;;;;;;;4995777;28;20372;-77
2022/03/14 01:52:27;;;;;;;10.43;6.32;;;;;;;;;;4996662;28;20085;-77
2022/03/14 01:54:53;;;;;;;11.93;7.05;;;;;;;;;;4996683;28;20073;-77
2022/03/14 01:57:20;;;;;;;12.88;7.60;;;;;;;;;;4995277;28;20473;-77
2022/03/14 01:59:46;;;;;;;13.32;7.88;;;;;;;;;;4995629;28;20491;-77
2022/03/14 02:02:13;;;;;;;15.90;8.18;;;;;;;;;;4996749;28;20092;-77
2022/03/14 02:04:41;;;;;;;14.27;8.10;;;;;;;;;;4996271;28;20156;-77
2022/03/14 02:07:08;;;;;;;14.43;7.38;;;;;;;;;;4996471;28;20074;-77
2022/03/14 02:09:34;;;;;;;19.25;8.63;;;;;;;;;;4996256;28;20080;-77
2022/03/14 02:12:08;;;;;;;18.30;9.15;;;;;;;;;;4996378;28;20074;-77
2022/03/14 02:14:40;;;;;;;15.88;7.68;;;;;;;;;;4996226;28;20151;-77
2022/03/14 02:17:08;;;;;;;17.20;8.45;;;;;;;;;;4995195;28;20395;-77
2022/03/14 02:19:35;;;;;;;14.60;7.32;;;;;;;;;;4995287;28;20549;-77
2022/03/14 02:22:04;;;;;;;14.38;7.25;;;;;;;;;;4996102;28;20050;-77
2022/03/14 02:24:30;;;;;;;12.05;7.07;;;;;;;;;;4995932;28;20101;-77
2022/03/14 02:26:57;;;;;;;12.82;7.05;;;;;;;;;;4994793;28;20502;-77
2022/03/14 02:29:24;;;;;;;15.82;8.10;;;;;;;;;;4994948;28;20046;-77
2022/03/14 02:31:50;;;;;;;16.60;7.88;;;;;;;;;;4995347;28;20046;-77
2022/03/14 02:34:17;;;;;;;13.75;7.55;;;;;;;;;;4994744;28;20042;-77
2022/03/14 02:36:43;;;;;;;15.52;8.57;;;;;;;;;;4995788;28;20134;-77
2022/03/14 02:39:11;;;;;;;12.88;7.80;;;;;;;;;;4995532;28;20375;-77
2022/03/14 02:41:38;;;;;;;15.98;8.05;;;;;;;;;;4995705;28;20416;-77
2022/03/14 02:44:06;;;;;;;18.67;8.00;;;;;;;;;;4995310;28;20414;-77
2022/03/14 02:46:34;;;;;;;16.77;9.07;;;;;;;;;;4995562;28;20129;-77
2022/03/14 02:49:01;;;;;;;16.35;7.93;;;;;;;;;;4994465;28;20038;-77
2022/03/14 02:51:27;;;;;;;15.18;6.88;;;;;;;;;;4994508;28;20483;-77
2022/03/14 02:53:57;;;;;;;16.88;8.20;;;;;;;;;;4995385;28;20081;-77
2022/03/14 02:56:25;;;;;;;14.43;7.80;;;;;;;;;;4995729;28;20096;-77
2022/03/14 02:58:53;;;;;;;17.13;9.48;;;;;;;;;;4994761;28;20082;-77
2022/03/14 03:01:20;;;;;;;18.42;8.80;;;;;;;;;;4995979;28;20042;-77
2022/03/14 03:03:48;;;;;;;14.88;7.53;;;;;;;;;;4995912;28;20078;-77
2022/03/14 03:06:15;;;;;;;16.35;7.60;;;;;;;;;;4994759;28;20046;-77
2022/03/14 03:08:43;;;;;;;15.88;8.38;;;;;;;;;;4995546;28;20042;-77
2022/03/14 03:11:11;;;;;;;14.05;7.53;;;;;;;;;;4995345;28;20073;-77
2022/03/14 03:13:41;;;;;;;18.00;8.90;;;;;;;;;;4995870;28;20070;-77
2022/03/14 03:16:07;;;;;;;18.38;9.60;;;;;;;;;;4995713;28;20133;-77
2022/03/14 03:18:35;;;;;;;17.60;8.55;;;;;;;;;;4995180;28;20070;-77
2022/03/14 03:21:01;;;;;;;18.13;8.93;;;;;;;;;;4995377;28;20070;-77
2022/03/14 03:23:28;;;;;;;20.48;11.13;;;;;;;;;;4995646;28;20088;-77
2022/03/14 03:25:54;;;;;;;19.83;9.30;;;;;;;;;;4995613;28;20415;-77
2022/03/14 03:28:21;;;;;;;19.88;9.25;;;;;;;;;;4993829;28;20073;-77
2022/03/14 03:30:49;;;;;;;22.77;11.20;;;;;;;;;;4994895;28;20039;-77
2022/03/14 03:33:16;;;;;;;23.17;10.85;;;;;;;;;;4995857;28;20078;-77
2022/03/14 03:35:42;;;;;;;18.30;9.93;;;;;;;;;;4994991;28;20108;-77
2022/03/14 03:38:09;;;;;;;18.88;10.05;;;;;;;;;;4994963;28;20070;-77
2022/03/14 03:40:36;;;;;;;22.17;10.38;;;;;;;;;;4995380;28;20050;-77
2022/03/14 03:43:02;;;;;;;20.50;11.82;;;;;;;;;;4994864;28;20074;-77
2022/03/14 03:45:29;;;;;;;22.67;11.35;;;;;;;;;;4994873;28;20077;-77
2022/03/14 03:47:57;;;;;;;21.77;10.75;;;;;;;;;;4994917;28;20096;-77
2022/03/14 03:50:23;;;;;;;19.70;10.27;;;;;;;;;;4995566;28;20073;-77
2022/03/14 03:52:50;;;;;;;23.20;10.90;;;;;;;;;;4994376;28;20533;-77
2022/03/14 03:55:16;;;;;;;19.85;10.70;;;;;;;;;;4994952;28;20047;-77
2022/03/14 03:57:43;;;;;;;23.02;12.65;;;;;;;;;;4995364;28;20042;-77
2022/03/14 04:00:12;;;;;;;19.85;11.07;;;;;;;;;;4995292;28;20077;-77
2022/03/14 04:02:39;;;;;;;19.60;11.00;;;;;;;;;;4995018;28;20047;-77
2022/03/14 04:05:09;;;;;;;19.58;10.93;;;;;;;;;;4995287;28;20051;-77
2022/03/14 04:07:35;;;;;;;21.35;12.05;;;;;;;;;;4994769;28;20077;-77
2022/03/14 04:10:03;;;;;;;22.70;11.07;;;;;;;;;;4994353;28;20069;-77
2022/03/14 04:12:30;;;;;;;20.38;11.43;;;;;;;;;;4994944;28;20414;-77
2022/03/14 04:14:58;;;;;;;20.27;10.88;;;;;;;;;;4995276;28;20077;-77
2022/03/14 04:17:25;;;;;;;22.00;12.13;;;;;;;;;;4994529;28;20050;-77
2022/03/14 04:19:52;;;;;;;19.30;10.63;;;;;;;;;;4994525;28;20047;-77
2022/03/14 04:22:20;;;;;;;21.08;11.75;;;;;;;;;;4996935;28;20050;-78
2022/03/14 04:24:46;;;;;;;20.98;11.25;;;;;;;;;;4998028;28;20479;-77
2022/03/14 04:27:13;;;;;;;20.13;11.82;;;;;;;;;;4997873;28;20510;-77
2022/03/14 04:29:40;;;;;;;24.27;11.80;;;;;;;;;;4998280;28;20081;-77
2022/03/14 04:32:07;;;;;;;20.70;10.27;;;;;;;;;;4999001;28;20042;-77
2022/03/14 04:34:34;;;;;;;20.63;10.95;;;;;;;;;;4998525;28;20368;-77
2022/03/14 04:37:00;;;;;;;20.52;11.43;;;;;;;;;;4997691;28;20042;-77
2022/03/14 04:39:28;;;;;;;22.15;11.93;;;;;;;;;;4999089;28;20074;-77
2022/03/14 04:41:55;;;;;;;20.70;11.18;;;;;;;;;;4998723;28;20070;-77
2022/03/14 04:44:21;;;;;;;23.92;11.63;;;;;;;;;;4998577;28;20046;-77
2022/03/14 04:46:48;;;;;;;20.67;10.90;;;;;;;;;;4998873;28;20074;-77
2022/03/14 04:49:15;;;;;;;21.58;11.02;;;;;;;;;;4998651;28;20422;-77
2022/03/14 04:51:42;;;;;;;20.38;11.32;;;;;;;;;;4998554;28;20438;-77
2022/03/14 04:54:09;;;;;;;22.30;13.02;;;;;;;;;;4998253;28;20069;-77
2022/03/14 04:56:37;;;;;;;20.83;10.85;;;;;;;;;;4998148;28;20050;-77
2022/03/14 04:59:04;;;;;;;21.33;12.10;;;;;;;;;;4997948;28;20070;-77
2022/03/14 05:01:31;;;;;;;21.20;12.02;;;;;;;;;;4997489;28;20473;-77
2022/03/14 05:03:57;;;;;;;22.10;11.52;;;;;;;;;;4997330;28;20043;-78
2022/03/14 05:06:24;;;;;;;22.25;11.85;;;;;;;;;;4997310;28;20554;-77
2022/03/14 05:08:50;;;;;;;19.90;11.07;;;;;;;;;;4998198;28;20074;-77
2022/03/14 05:11:17;;;;;;;23.83;11.60;;;;;;;;;;4997210;28;20042;-77
2022/03/14 05:13:45;;;;;;;24.63;12.93;;;;;;;;;;4997222;28;20046;-77
2022/03/14 05:16:12;;;;;;;21.58;11.30;;;;;;;;;;4997898;28;20046;-77
2022/03/14 05:18:38;;;;;;;21.42;10.77;;;;;;;;;;4998072;28;20438;-77
2022/03/14 05:21:05;;;;;;;20.92;10.48;;;;;;;;;;4996778;28;20521;-77
2022/03/14 05:23:32;;;;;;;20.13;11.50;;;;;;;;;;4996641;28;20545;-77
2022/03/14 05:25:59;;;;;;;21.77;10.40;;;;;;;;;;4996886;28;20038;-77
2022/03/14 05:28:25;;;;;;;22.90;11.60;;;;;;;;;;4996738;28;20092;-77
2022/03/14 05:30:54;;;;;;;18.38;10.45;;;;;;;;;;4997053;28;20054;-77
2022/03/14 05:33:20;;;;;;;18.65;10.68;;;;;;;;;;4997518;28;20050;-77
2022/03/14 05:35:47;;;;;;;20.63;10.15;;;;;;;;;;4997511;28;20046;-77
2022/03/14 05:38:14;;;;;;;20.70;10.55;;;;;;;;;;4997448;28;20092;-77
2022/03/14 05:40:40;;;;;;;19.70;10.88;;;;;;;;;;4996260;28;20050;-77
2022/03/14 05:43:08;;;;;;;18.88;10.32;;;;;;;;;;4997021;28;20074;-78
2022/03/14 05:45:35;;;;;;;19.35;9.10;;;;;;;;;;4997263;28;20484;-77
2022/03/14 05:48:03;;;;;;;16.23;9.13;;;;;;;;;;4997316;28;20084;-77
2022/03/14 05:50:30;;;;;;;11.40;6.50;;;;;;;;;;4996898;28;20046;-77
2022/03/14 05:52:56;;;;;;;12.27;7.07;;;;;;;;;;4996796;28;20074;-77
2022/03/14 05:55:23;;;;;;;13.95;7.30;;;;;;;;;;4997211;28;20054;-77
2022/03/14 05:57:50;;;;;;;14.32;6.47;;;;;;;;;;4997822;28;20050;-77
2022/03/14 06:00:24;;;;;;;10.98;5.60;;;;;;;;;;4997230;28;20051;-77
2022/03/14 06:02:52;;;;;;;9.88;5.60;;;;;;;;;;4998678;28;20050;-77
2022/03/14 06:05:20;;;;;;;9.95;5.35;;;;;;;;;;4996061;28;20042;-77
2022/03/14 06:07:47;;;;;;;11.07;5.68;;;;;;;;;;4996002;28;20089;-77
2022/03/14 06:10:15;;;;;;;11.18;4.22;;;;;;;;;;4998347;28;20073;-78
2022/03/14 06:12:42;;;;;;;10.23;5.28;;;;;;;;;;4996952;28;20042;-77
2022/03/14 06:15:14;;;;;;;8.88;4.70;;;;;;;;;;4995416;28;20038;-77
2022/03/14 06:17:42;;;;;;;9.32;4.68;;;;;;;;;;4996175;28;20100;-79
2022/03/14 06:20:09;;;;;;;8.90;4.40;;;;;;;;;;4996512;28;20038;-77
2022/03/14 06:22:40;;;;;;;9.35;4.57;;;;;;;;;;4995359;28;20093;-78
2022/03/14 06:25:07;;;;;;;8.68;4.25;;;;;;;;;;4995091;28;20137;-78
2022/03/14 06:27:34;;;;;;;8.65;3.83;;;;;;;;;;4996901;28;20049;-79
2022/03/14 06:30:00;;;;;;;8.88;4.20;;;;;;;;;;4996906;28;20062;-77
2022/03/14 06:32:34;;;;;;;7.43;3.53;;;;;;;;;;4995025;28;20435;-78
2022/03/14 06:35:00;;;;;;;5.28;2.72;;;;;;;;;;4996288;28;20078;-78
2022/03/14 06:37:33;;;;;;;5.50;2.72;;;;;;;;;;4996077;28;20073;-78
2022/03/14 06:40:01;;;;;;;7.10;2.53;;;;;;;;;;4995641;28;20078;-78
2022/03/14 06:42:28;;;;;;;5.72;2.88;;;;;;;;;;4997660;28;20052;-80
2022/03/14 06:44:56;;;;;;;4.65;2.58;;;;;;;;;;4995989;28;20053;-78
2022/03/14 06:47:23;;;;;;;6.13;2.85;;;;;;;;;;4996983;28;20081;-78
2022/03/14 06:49:50;;;;;;;5.10;2.85;;;;;;;;;;4995227;28;20482;-78
2022/03/14 06:52:17;;;;;;;6.05;3.70;;;;;;;;;;4995088;28;20089;-78
2022/03/14 06:54:43;;;;;;;7.43;2.95;;;;;;;;;;4995793;28;20074;-79
2022/03/14 06:57:12;;;;;;;6.15;3.20;;;;;;;;;;4995927;28;20414;-78
2022/03/14 06:59:39;;;;;;;7.75;2.90;;;;;;;;;;4995539;28;20077;-78
2022/03/14 07:02:06;;;;;;;4.72;2.90;;;;;;;;;;4995951;28;20121;-78
2022/03/14 07:04:33;;;;;;;3.85;1.92;;;;;;;;;;4996036;28;20372;-78
2022/03/14 07:06:59;;;;;;;5.57;2.42;;;;;;;;;;4995217;28;20432;-77
2022/03/14 07:09:26;;;;;;;8.68;3.47;;;;;;;;;;4995533;28;20042;-78
2022/03/14 07:11:52;;;;;;;6.65;2.90;;;;;;;;;;4995837;28;20100;-78
2022/03/14 07:14:21;;;;;;;5.35;2.50;;;;;;;;;;4995835;28;20096;-78
2022/03/14 07:16:47;;;;;;;7.57;3.15;;;;;;;;;;4996004;28;20450;-79
2022/03/14 07:19:14;;;;;;;7.18;2.70;;;;;;;;;;4995413;28;20078;-79
2022/03/14 07:21:42;;;;;;;5.43;2.03;;;;;;;;;;4998038;28;20427;-79
2022/03/14 07:24:08;;;;;;;3.05;1.55;;;;;;;;;;5000300;28;20074;-79
2022/03/14 07:26:35;;;;;;;2.28;1.25;;;;;;;;;;5001519;28;20073;-78
2022/03/14 07:29:02;;;;;;;3.00;1.20;;;;;;;;;;4997703;28;20407;-79
2022/03/14 07:31:30;;;;;;;3.53;1.65;;;;;;;;;;4997248;28;20541;-79
2022/03/14 07:33:56;;;;;;;2.60;0.85;;;;;;;;;;4996745;28;20042;-79
2022/03/14 07:36:23;;;;;;;1.55;0.80;;;;;;;;;;4997918;28;20084;-79
2022/03/14 07:38:50;;;;;;;1.25;0.68;;;;;;;;;;4998771;28;20078;-79
2022/03/14 07:41:17;;;;;;;2.28;0.40;;;;;;;;;;4999610;28;20097;-77
2022/03/14 07:43:43;;;;;;;1.25;0.55;;;;;;;;;;4995735;28;20078;-77
2022/03/14 07:46:10;;;;;;;3.95;1.13;;;;;;;;;;4994060;28;20077;-77
2022/03/14 07:48:38;;;;;;;1.55;0.38;;;;;;;;;;4994470;28;20039;-76
2022/03/14 07:51:04;;;;;;;1.88;0.47;;;;;;;;;;4994500;28;20443;-76
2022/03/14 07:53:31;;;;;;;0.65;0.50;;;;;;;;;;4993459;28;20046;-75
2022/03/14 07:55:57;;;;;;;1.42;0.65;;;;;;;;;;4995829;28;20046;-76
2022/03/14 07:58:24;;;;;;;1.27;0.70;;;;;;;;;;4998029;28;20081;-76
2022/03/14 08:00:50;;;;;;;1.17;0.80;;;;;;;;;;4999648;28;20122;-77
2022/03/14 08:03:18;;;;;;;0.52;0.40;;;;;;;;;;4998603;28;20473;-78
2022/03/14 08:05:58;;;;;;;1.30;0.63;;;;;;;;;;4998950;28;20046;-77
2022/03/14 08:08:25;;;;;;;0.40;0.40;;;;;;;;;;4998163;28;20039;-75
2022/03/14 08:10:52;;;;;;;1.65;0.80;;;;;;;;;;4998183;28;20367;-76
2022/03/14 08:13:19;;;;;;;2.05;0.40;;;;;;;;;;4998223;28;20105;-75
2022/03/14 08:15:45;;;;;;;1.77;0.70;;;;;;;;;;4998171;28;20042;-77
2022/03/14 08:18:13;;;;;;;0.60;0.43;;;;;;;;;;4996889;28;20502;-76
2022/03/14 08:20:40;;;;;;;1.55;0.60;;;;;;;;;;4997594;28;20042;-76
2022/03/14 08:23:09;;;;;;;0.95;0.40;;;;;;;;;;4997863;28;20039;-76
2022/03/14 08:25:36;;;;;;;0.30;0.22;;;;;;;;;;4997954;28;20088;-76
2022/03/14 08:28:03;;;;;;;1.08;0.30;;;;;;;;;;4997094;28;20046;-76
2022/03/14 08:30:29;;;;;;;0.77;0.40;;;;;;;;;;4996937;28;20077;-76
2022/03/14 08:32:57;;;;;;;0.22;0.20;;;;;;;;;;4997357;28;20042;-76
2022/03/14 08:35:24;;;;;;;0.40;0.22;;;;;;;;;;4997075;28;20038;-76
2022/03/14 08:37:53;;;;;;;0.88;0.55;;;;;;;;;;4998393;28;20054;-77
2022/03/14 08:40:23;;;;;;;0.63;0.35;;;;;;;;;;4997026;28;20478;-76
2022/03/14 08:42:50;;;;;;;0.88;0.40;;;;;;;;;;4998077;28;20081;-77
2022/03/14 08:45:17;;;;;;;1.00;0.32;;;;;;;;;;4997616;28;20082;-77
2022/03/14 08:47:44;;;;;;;0.70;0.43;;;;;;;;;;4997574;28;20483;-77
2022/03/14 08:50:11;;;;;;;0.95;0.47;;;;;;;;;;4996354;28;20442;-77
2022/03/14 08:52:38;;;;;;;0.50;0.32;;;;;;;;;;4996373;28;20493;-78
2022/03/14 08:55:06;;;;;;;0.63;0.30;;;;;;;;;;4998275;28;20078;-77
2022/03/14 08:57:34;;;;;;;1.13;0.43;;;;;;;;;;4996829;28;20141;-77
2022/03/14 09:00:00;;;;;;;0.47;0.30;;;;;;;;;;4999054;28;20038;-77
2022/03/14 09:02:27;;;;;;;2.72;0.50;;;;;;;;;;5000835;28;20081;-78
2022/03/14 09:04:53;;;;;;;0.77;0.60;;;;;;;;;;4999307;28;20108;-78
2022/03/14 09:07:31;;;;;;;0.60;0.38;;;;;;;;;;4997332;28;20089;-77
2022/03/14 09:10:01;;;;;;;1.00;0.60;;;;;;;;;;4997943;28;20431;-77
2022/03/14 09:12:28;;;;;;;2.17;0.80;;;;;;;;;;4997402;28;20053;-77
2022/03/14 09:14:56;;;;;;;1.40;0.80;;;;;;;;;;4996484;28;20545;-78
2022/03/14 09:17:24;;;;;;;1.27;0.50;;;;;;;;;;4996666;28;20050;-76
2022/03/14 09:19:51;;;;;;;3.63;0.60;;;;;;;;;;4996051;28;20043;-76
2022/03/14 09:22:18;;;;;;;1.00;0.35;;;;;;;;;;4997204;28;20074;-77
2022/03/14 09:24:47;;;;;;;0.30;0.20;;;;;;;;;;4997192;28;20046;-77
2022/03/14 09:27:13;;;;;;;2.38;0.15;;;;;;;;;;4997540;28;20046;-77
2022/03/14 09:29:40;;;;;;;0.43;0.30;;;;;;;;;;4996283;28;20459;-78
2022/03/14 09:32:08;;;;;;;0.30;0.20;;;;;;;;;;4996708;28;20085;-76
2022/03/14 09:34:37;;;;;;;1.90;0.40;;;;;;;;;;4996975;28;20082;-76
2022/03/14 09:37:04;;;;;;;0.20;0.20;;;;;;;;;;4997009;28;20371;-77
2022/03/14 09:39:30;;;;;;;1.65;0.32;;;;;;;;;;4997302;28;20042;-77
2022/03/14 09:41:57;;;;;;;0.13;0.13;;;;;;;;;;4995989;28;20085;-77
2022/03/14 09:44:28;;;;;;;0.45;0.20;;;;;;;;;;4997231;28;20078;-77
2022/03/14 09:46:56;;;;;;;0.50;0.30;;;;;;;;;;4995298;28;20471;-75
2022/03/14 09:49:26;;;;;;;1.20;0.40;;;;;;;;;;4996316;28;20043;-76
2022/03/14 09:51:54;;;;;;;0.20;0.08;;;;;;;;;;4996360;28;20387;-76
2022/03/14 09:54:22;;;;;;;0.82;0.32;;;;;;;;;;4996163;28;20116;-76
2022/03/14 09:56:49;;;;;;;0.43;0.30;;;;;;;;;;4996440;28;20081;-78
2022/03/14 09:59:15;;;;;;;1.45;0.20;;;;;;;;;;4996230;28;20074;-77
2022/03/14 10:01:42;;;;;;;0.80;0.30;;;;;;;;;;4996433;28;20077;-77
2022/03/14 10:04:09;;;;;;;1.35;0.30;;;;;;;;;;4995694;28;20042;-76
2022/03/14 10:06:40;;;;;;;0.68;0.30;;;;;;;;;;4995155;28;20085;-77
2022/03/14 10:09:07;;;;;;;1.30;0.20;;;;;;;;;;4996452;28;20057;-76
2022/03/14 10:11:33;;;;;;;0.47;0.20;;;;;;;;;;4996396;28;20137;-77
2022/03/14 10:14:05;;;;;;;0.25;0.10;;;;;;;;;;4995498;28;20046;-77
2022/03/14 10:16:33;;;;;;;0.50;0.30;;;;;;;;;;4994967;28;20046;-77
2022/03/14 10:19:02;;;;;;;2.28;0.22;;;;;;;;;;4995200;28;20042;-77
2022/03/14 10:21:33;;;;;;;1.17;0.30;;;;;;;;;;4996022;28;20081;-77
2022/03/14 10:24:04;;;;;;;1.20;0.20;;;;;;;;;;4994990;28;20437;-77
2022/03/14 10:26:33;;;;;;;2.65;0.20;;;;;;;;;;4995435;28;20402;-77
2022/03/14 10:29:00;;;;;;;0.85;0.28;;;;;;;;;;4994813;28;20463;-77
2022/03/14 10:31:31;;;;;;;1.58;1.23;;;;;;;;;;4995530;28;20082;-78
2022/03/14 10:34:04;;;;;;;0.65;0.38;;;;;;;;;;4996069;28;20080;-78
2022/03/14 10:36:45;;;;;;;0.28;0.10;;;;;;;;;;4996190;28;20050;-78
2022/03/14 10:39:18;;;;;;;0.10;0.10;;;;;;;;;;5000424;28;20053;-78
2022/03/14 10:41:51;;;;;;;0.22;0.17;;;;;;;;;;5002295;28;20042;-78
2022/03/14 10:44:25;;;;;;;1.75;1.13;;;;;;;;;;4996165;28;20078;-77
2022/03/14 10:46:52;;;;;;;0.30;0.20;;;;;;;;;;4996690;28;20120;-79
2022/03/14 10:49:19;;;;;;;0.93;0.30;;;;;;;;;;4995423;28;20081;-77
2022/03/14 10:51:54;;;;;;;0.22;0.15;;;;;;;;;;4995446;28;20066;-77
2022/03/14 10:54:22;;;;;;;0.90;0.20;;;;;;;;;;4996300;28;20074;-77
2022/03/14 10:57:08;;;;;;;1.85;0.25;;;;;;;;;;4995879;28;20105;-77
2022/03/14 10:59:38;;;;;;;0.60;0.38;;;;;;;;;;4994777;28;20081;-77
2022/03/14 11:02:06;;;;;;;0.65;0.50;;;;;;;;;;4995853;28;20078;-77
2022/03/14 11:04:44;;;;;;;1.30;0.93;;;;;;;;;;4994337;28;20475;-77
2022/03/14 11:07:11;;;;;;;0.75;0.45;;;;;;;;;;4995353;28;20137;-77
2022/03/14 11:09:44;;;;;;;1.85;0.32;;;;;;;;;;4995090;28;20042;-77
2022/03/14 11:12:13;;;;;;;0.15;0.15;;;;;;;;;;4994750;28;20046;-77
2022/03/14 11:14:40;;;;;;;4.60;1.27;;;;;;;;;;4995255;28;20085;-77
2022/03/14 11:17:15;;;;;;;0.98;0.30;;;;;;;;;;4995113;28;20085;-77
2022/03/14 11:19:42;;;;;;;3.37;0.97;;;;;;;;;;4995226;28;20069;-77
2022/03/14 11:22:11;;;;;;;0.25;0.20;;;;;;;;;;4995013;28;20369;-77
2022/03/14 11:24:41;;;;;;;0.75;0.20;;;;;;;;;;4994588;28;20054;-77
2022/03/14 11:27:11;;;;;;;0.70;0.40;;;;;;;;;;4993850;28;20446;-77
2022/03/14 11:29:53;;;;;;;0.88;0.28;;;;;;;;;;4994337;28;20090;-77
2022/03/14 11:32:22;;;;;;;0.45;0.30;;;;;;;;;;4998318;28;20053;-77
2022/03/14 11:34:50;;;;;;;0.98;0.20;;;;;;;;;;4998693;28;20084;-77
2022/03/14 11:37:17;;;;;;;0.43;0.20;;;;;;;;;;4997848;28;20522;-77
2022/03/14 11:39:44;;;;;;;1.15;0.30;;;;;;;;;;4998746;28;20098;-77
2022/03/14 11:42:15;;;;;;;0.52;0.40;;;;;;;;;;4998918;28;20414;-77
2022/03/14 11:44:43;;;;;;;1.15;0.40;;;;;;;;;;4997766;28;20478;-77
2022/03/14 11:47:11;;;;;;;2.42;0.60;;;;;;;;;;4998481;28;20085;-77
2022/03/14 11:49:38;;;;;;;1.05;0.45;;;;;;;;;;4998533;28;20074;-77
2022/03/14 11:52:10;;;;;;;0.52;0.35;;;;;;;;;;4998712;28;20129;-77
2022/03/14 11:54:40;;;;;;;0.75;0.55;;;;;;;;;;4998796;28;20046;-78
2022/03/14 11:57:07;;;;;;;0.80;0.60;;;;;;;;;;4999171;28;20047;-77
2022/03/14 11:59:36;;;;;;;3.20;1.20;;;;;;;;;;4999552;28;20074;-78
2022/03/14 12:02:05;;;;;;;5.50;1.00;;;;;;;;;;4999259;28;20062;-78
2022/03/14 12:04:34;;;;;;;1.95;0.80;;;;;;;;;;4999136;28;20046;-77
2022/03/14 12:07:08;;;;;;;2.75;0.65;;;;;;;;;;4998471;28;20514;-78
2022/03/14 12:09:48;;;;;;;7.82;0.73;;;;;;;;;;4999395;28;20042;-77
2022/03/14 12:12:31;;;;;;;2.22;1.05;;;;;;;;;;4998918;28;20374;-78
2022/03/14 12:15:04;;;;;;;1.85;1.13;;;;;;;;;;4999614;28;20078;-78
2022/03/14 12:17:35;;;;;;;3.58;1.35;;;;;;;;;;4999071;28;20050;-78
2022/03/14 12:20:07;;;;;;;0.95;0.70;;;;;;;;;;4999526;28;20426;-79
2022/03/14 12:22:45;;;;;;;2.90;0.52;;;;;;;;;;4998065;28;20066;-78
2022/03/14 12:25:13;;;;;;;2.30;0.50;;;;;;;;;;4997957;28;20510;-77
2022/03/14 12:27:40;;;;;;;1.45;0.65;;;;;;;;;;4997080;28;20069;-77
2022/03/14 12:30:32;;;;;;;0.52;0.30;;;;;;;;;;4996652;28;20436;-77
2022/03/14 12:33:00;;;;;;;0.68;0.40;;;;;;;;;;4998576;28;20046;-78
2022/03/14 12:35:33;;;;;;;0.88;0.30;;;;;;;;;;4997828;28;20438;-78
2022/03/14 12:38:11;;;;;;;0.70;0.35;;;;;;;;;;4997390;28;20482;-78
2022/03/14 12:40:45;;;;;;;0.80;0.40;;;;;;;;;;4996863;28;20493;-77
2022/03/14 12:43:23;;;;;;;0.98;0.32;;;;;;;;;;4996662;28;20042;-77
2022/03/14 12:45:55;;;;;;;0.95;0.40;;;;;;;;;;4997821;28;20046;-77
2022/03/14 12:48:24;;;;;;;0.73;0.40;;;;;;;;;;4997057;28;20541;-77
2022/03/14 12:51:05;;;;;;;0.80;0.50;;;;;;;;;;4998646;28;20055;-77
2022/03/14 12:53:45;;;;;;;2.85;0.60;;;;;;;;;;4998213;28;20069;-77
2022/03/14 12:56:14;;;;;;;0.63;0.20;;;;;;;;;;4997728;28;20042;-77
2022/03/14 12:58:50;;;;;;;2.30;0.80;;;;;;;;;;4997036;28;20498;-77
2022/03/14 13:01:19;;;;;;;0.70;0.50;;;;;;;;;;4998669;28;20049;-79
2022/03/14 13:03:47;;;;;;;1.17;0.73;;;;;;;;;;4998646;28;20046;-77
2022/03/14 13:06:14;;;;;;;1.13;0.50;;;;;;;;;;4997896;28;20387;-76
2022/03/14 13:08:48;;;;;;;1.77;0.50;;;;;;;;;;4998425;28;20097;-77
2022/03/14 13:11:15;;;;;;;4.28;0.63;;;;;;;;;;5000007;28;20042;-79
2022/03/14 13:13:42;;;;;;;2.17;0.50;;;;;;;;;;4998612;28;20042;-79
2022/03/14 13:16:10;;;;;;;1.40;0.50;;;;;;;;;;4998651;28;20039;-78
2022/03/14 13:18:41;;;;;;;4.75;0.47;;;;;;;;;;4997808;28;20067;-78
2022/03/14 13:21:14;;;;;;;1.65;0.40;;;;;;;;;;4997262;28;20100;-77
2022/03/14 13:23:41;;;;;;;1.27;0.38;;;;;;;;;;4997185;28;20038;-78
2022/03/14 13:26:09;;;;;;;5.70;0.73;;;;;;;;;;4979561;28;20049;-78
2022/03/14 13:28:38;;;;;;;5.88;0.60;;;;;;;;;;4997316;28;20050;-77
2022/03/14 13:31:06;;;;;;;0.60;0.30;;;;;;;;;;4997101;28;20129;-76
2022/03/14 13:33:34;;;;;;;0.93;0.40;;;;;;;;;;4997639;28;20096;-77
2022/03/14 13:36:04;;;;;;;1.15;0.40;;;;;;;;;;4996689;28;20088;-78
2022/03/14 13:38:32;;;;;;;1.10;0.65;;;;;;;;;;4996641;28;20085;-78
2022/03/14 13:40:59;;;;;;;0.77;0.40;;;;;;;;;;4997213;28;20046;-77
2022/03/14 13:43:26;;;;;;;1.65;0.50;;;;;;;;;;4997211;28;20127;-78
2022/03/14 13:45:53;;;;;;;1.60;0.50;;;;;;;;;;4996853;28;20073;-77
2022/03/14 13:48:23;;;;;;;1.60;0.60;;;;;;;;;;4996981;28;20129;-78
2022/03/14 13:50:50;;;;;;;0.57;0.40;;;;;;;;;;4996892;28;20378;-77
2022/03/14 13:53:22;;;;;;;0.95;0.40;;;;;;;;;;4996027;28;20085;-78
2022/03/14 13:55:53;;;;;;;1.02;0.30;;;;;;;;;;4996682;28;20081;-77
2022/03/14 13:58:24;;;;;;;1.60;0.38;;;;;;;;;;4997417;28;20453;-78
2022/03/14 14:00:52;;;;;;;0.65;0.45;;;;;;;;;;4997133;28;20073;-77
2022/03/14 14:03:22;;;;;;;0.80;0.50;;;;;;;;;;4995860;28;20081;-77
2022/03/14 14:05:49;;;;;;;0.60;0.40;;;;;;;;;;4995187;28;20081;-76
2022/03/14 14:08:31;;;;;;;0.93;0.30;;;;;;;;;;4994841;28;20499;-76
2022/03/14 14:10:58;;;;;;;1.85;0.50;;;;;;;;;;4995922;28;20045;-76
2022/03/14 14:13:26;;;;;;;0.68;0.30;;;;;;;;;;4995452;28;20045;-77
2022/03/14 14:15:53;;;;;;;2.78;0.50;;;;;;;;;;4995784;28;20486;-77
2022/03/14 14:18:21;;;;;;;1.98;0.60;;;;;;;;;;4995595;28;20096;-77
2022/03/14 14:20:48;;;;;;;0.93;0.38;;;;;;;;;;4995687;28;20050;-77
2022/03/14 14:23:15;;;;;;;0.85;0.30;;;;;;;;;;4995792;28;20042;-77
2022/03/14 14:25:47;;;;;;;1.25;0.68;;;;;;;;;;4995589;28;20061;-77
2022/03/14 14:28:14;;;;;;;0.68;0.40;;;;;;;;;;4995794;28;20038;-77
2022/03/14 14:30:48;;;;;;;1.95;0.40;;;;;;;;;;4995193;28;20149;-77
2022/03/14 14:33:17;;;;;;;2.30;0.65;;;;;;;;;;4995835;28;20042;-77
2022/03/14 14:35:45;;;;;;;0.50;0.28;;;;;;;;;;4995394;28;20070;-77
2022/03/14 14:38:13;;;;;;;0.82;0.50;;;;;;;;;;4995538;28;20089;-77
2022/03/14 14:40:40;;;;;;;4.03;0.55;;;;;;;;;;4995495;28;20410;-77
2022/03/14 14:43:09;;;;;;;2.72;0.50;;;;;;;;;;4995479;28;20078;-76